Time;durP1;ratioP1;P1;durP2;ratioP2;P2;SDS_P1;SDS_P2;PMS_P1;PMS_P2;Temp;Humidity;BMP_temperature;BMP_pressure;BME280_temperature;BME280_humidity;BME280_pressure;Samples;Min_cycle;Max_cycle;Signal;HPM_P1;HPM_P2
2022/04/19 00:00:06;;;;;;;5.30;1.05;;;;;;;5.69;82.66;100466.72;6308366;22;20003;-71
2022/04/19 00:02:32;;;;;;;5.05;1.05;;;;;;;5.63;82.75;100462.22;6252640;22;20038;-72
2022/04/19 00:04:59;;;;;;;3.75;0.98;;;;;;;5.64;82.72;100465.78;6255136;22;20509;-72
2022/04/19 00:07:25;;;;;;;7.00;1.08;;;;;;;5.60;82.63;100457.25;6309632;22;20078;-71
2022/04/19 00:09:50;;;;;;;1.08;0.70;;;;;;;5.57;82.93;100463.97;6280366;22;20003;-71
2022/04/19 00:12:16;;;;;;;2.20;0.90;;;;;;;5.50;82.21;100452.38;6283141;22;20053;-72
2022/04/19 00:14:42;;;;;;;1.45;0.77;;;;;;;5.51;82.78;100454.06;6256792;22;20070;-70
2022/04/19 00:17:11;;;;;;;5.65;0.88;;;;;;;5.46;82.84;100453.09;6280524;22;20003;-71
2022/04/19 00:19:36;;;;;;;0.90;0.40;;;;;;;5.37;82.26;100448.00;6307513;22;20018;-70
2022/04/19 00:22:02;;;;;;;3.35;0.82;;;;;;;5.33;82.83;100452.25;6280355;22;20003;-71
2022/04/19 00:24:28;;;;;;;2.92;0.93;;;;;;;5.36;82.80;100451.78;6309587;22;20425;-72
2022/04/19 00:26:54;;;;;;;1.70;0.70;;;;;;;5.37;82.66;100448.00;6252778;22;20031;-71
2022/04/19 00:29:20;;;;;;;2.35;0.60;;;;;;;5.38;82.60;100449.66;6278823;22;20007;-73
2022/04/19 00:31:45;;;;;;;5.00;0.80;;;;;;;5.37;83.18;100447.16;6306628;22;20057;-73
2022/04/19 00:34:11;;;;;;;2.20;0.98;;;;;;;5.31;83.02;100443.47;6279630;22;20018;-72
2022/04/19 00:36:37;;;;;;;0.95;0.70;;;;;;;5.30;82.67;100435.59;6257730;22;20004;-72
2022/04/19 00:39:03;;;;;;;2.47;0.65;;;;;;;5.29;83.20;100439.38;6308172;22;20102;-73
2022/04/19 00:41:29;;;;;;;4.13;0.95;;;;;;;5.31;83.04;100443.47;6308049;22;20011;-72
2022/04/19 00:43:54;;;;;;;1.73;0.65;;;;;;;5.26;82.66;100440.66;6307453;22;20326;-70
2022/04/19 00:46:21;;;;;;;1.52;0.68;;;;;;;5.27;82.68;100436.91;6250589;22;20318;-72
2022/04/19 00:48:46;;;;;;;1.23;0.50;;;;;;;5.28;82.60;100441.25;6254328;22;20031;-71
2022/04/19 00:51:13;;;;;;;1.00;0.50;;;;;;;5.30;82.73;100430.16;6279681;22;20014;-70
2022/04/19 00:53:40;;;;;;;0.70;0.20;;;;;;;5.29;82.46;100432.06;6308571;22;20006;-70
2022/04/19 00:56:07;;;;;;;1.10;0.45;;;;;;;5.24;82.24;100434.63;6284834;22;20062;-72
2022/04/19 00:58:34;;;;;;;1.88;0.50;;;;;;;5.27;82.21;100436.91;6259157;22;20716;-71
2022/04/19 01:01:03;;;;;;;0.20;0.20;;;;;;;5.19;82.47;100429.06;6284653;22;20004;-71
2022/04/19 01:03:29;;;;;;;1.35;0.60;;;;;;;5.18;82.16;100422.00;6257850;22;20094;-72
2022/04/19 01:05:56;;;;;;;0.77;0.50;;;;;;;5.25;82.58;100430.84;6311821;22;20547;-70
2022/04/19 01:08:36;;;;;;;0.82;0.30;;;;;;;5.17;82.17;100423.03;6259488;22;20011;-71
2022/04/19 01:13:46;;;;;;;2.43;0.67;;;;;;;5.18;82.05;100435.53;6283970;22;20022;-73
2022/04/19 01:16:11;;;;;;;3.35;1.08;;;;;;;5.18;82.05;100433.69;6251940;22;20321;-72
2022/04/19 01:18:37;;;;;;;3.17;0.80;;;;;;;5.17;82.36;100434.72;6278982;22;20063;-70
2022/04/19 01:21:04;;;;;;;2.42;0.95;;;;;;;5.15;82.71;100436.81;6278558;22;20003;-71
2022/04/19 01:23:29;;;;;;;4.00;0.85;;;;;;;5.09;82.96;100429.63;6308654;22;20034;-73
2022/04/19 01:25:57;;;;;;;2.80;0.75;;;;;;;5.13;83.11;100435.44;6280938;22;20065;-71
2022/04/19 01:28:23;;;;;;;1.42;0.80;;;;;;;5.06;83.45;100435.50;6306998;22;20013;-72
2022/04/19 01:30:52;;;;;;;5.35;0.77;;;;;;;5.02;83.52;100435.16;6305609;22;20451;-71
2022/04/19 01:33:18;;;;;;;6.13;0.70;;;;;;;4.98;83.88;100433.94;6306657;22;20057;-71
2022/04/19 01:35:44;;;;;;;4.03;0.75;;;;;;;4.97;83.89;100435.00;6304574;22;20441;-71
2022/04/19 01:38:09;;;;;;;1.90;1.00;;;;;;;4.97;84.40;100426.84;6277353;22;20022;-70
2022/04/19 01:40:38;;;;;;;2.40;0.80;;;;;;;4.94;84.55;100421.91;6250007;22;20010;-71
2022/04/19 01:49:23;;;;;;;;;;;;;;;;;;;;;
2022/04/19 01:51:49;;;;;;;3.03;0.80;;;;;;;4.79;84.94;100424.16;6218312;23;20060;-72
2022/04/19 01:57:37;;;;;;;3.45;0.80;;;;;;;4.68;84.88;100409.53;6249251;23;20042;-72
2022/04/19 02:00:05;;;;;;;2.25;0.70;;;;;;;4.63;84.91;100409.34;6196848;23;20000;-72
2022/04/19 02:02:30;;;;;;;4.53;0.80;;;;;;;4.71;85.59;100418.00;6248202;23;20004;-72
2022/04/19 02:04:56;;;;;;;4.15;0.70;;;;;;;4.70;85.50;100416.38;6197754;23;20605;-70
2022/04/19 02:07:21;;;;;;;3.03;1.05;;;;;;;4.68;85.91;100413.03;6223791;23;20095;-71
2022/04/19 02:09:47;;;;;;;1.42;0.98;;;;;;;4.70;85.92;100415.53;6219517;23;20016;-72
2022/04/19 02:12:13;;;;;;;6.15;1.45;;;;;;;4.71;87.14;100404.47;6245772;23;20061;-71
2022/04/19 02:14:41;;;;;;;4.72;1.20;;;;;;;4.71;87.21;100411.78;6249239;23;20008;-71
2022/04/19 02:17:10;;;;;;;2.58;1.10;;;;;;;4.61;86.78;100406.88;6247413;23;20004;-71
2022/04/19 02:19:36;;;;;;;2.15;0.80;;;;;;;4.56;87.10;100412.16;6223676;23;20099;-72
2022/04/19 02:22:02;;;;;;;3.38;1.35;;;;;;;4.50;87.02;100408.47;6220418;23;20095;-72
2022/04/19 02:24:28;;;;;;;2.60;0.93;;;;;;;4.50;87.24;100400.34;6198144;23;20019;-73
2022/04/19 02:26:54;;;;;;;4.20;1.15;;;;;;;4.54;87.94;100408.84;6223168;23;20031;-71
2022/04/19 02:29:19;;;;;;;8.35;1.33;;;;;;;4.53;88.24;100399.91;6217778;23;20442;-72
2022/04/19 02:31:45;;;;;;;5.85;1.48;;;;;;;4.51;88.64;100395.75;6221872;23;20087;-71
2022/04/19 02:34:11;;;;;;;5.60;1.00;;;;;;;4.48;89.18;100405.19;6244776;23;20000;-73
2022/04/19 02:36:36;;;;;;;5.35;0.80;;;;;;;4.40;88.76;100402.75;6243731;23;20031;-70
2022/04/19 02:39:02;;;;;;;4.18;1.20;;;;;;;4.36;88.87;100398.84;6246679;23;20012;-71
2022/04/19 02:41:28;;;;;;;4.57;1.48;;;;;;;4.37;89.16;100406.75;6242646;23;20069;-71
2022/04/19 02:43:53;;;;;;;2.40;0.90;;;;;;;4.36;89.04;100405.06;6221164;23;20087;-71
2022/04/19 02:46:18;;;;;;;1.92;0.90;;;;;;;4.33;89.26;100402.81;6246133;23;20111;-72
2022/04/19 02:48:44;;;;;;;3.45;0.82;;;;;;;4.27;89.54;100401.03;6248167;23;20578;-71
2022/04/19 02:51:09;;;;;;;5.05;0.98;;;;;;;4.25;89.60;100394.16;6221366;23;20015;-70
2022/04/19 02:53:36;;;;;;;3.15;1.08;;;;;;;4.27;90.35;100395.59;6223164;23;20066;-71
2022/04/19 02:56:03;;;;;;;3.45;1.02;;;;;;;4.21;90.38;100401.94;6245570;23;20008;-70
2022/04/19 02:58:29;;;;;;;9.52;1.00;;;;;;;4.09;90.42;100399.13;6220097;23;20008;-72
2022/04/19 03:00:55;;;;;;;3.28;0.90;;;;;;;4.02;90.19;100398.38;6246776;23;20477;-71
2022/04/19 03:03:20;;;;;;;2.53;1.38;;;;;;;4.00;90.12;100390.47;6246381;23;20012;-71
2022/04/19 03:05:48;;;;;;;4.63;0.77;;;;;;;4.01;90.32;100400.22;6221113;23;20008;-72
2022/04/19 03:08:13;;;;;;;2.35;0.90;;;;;;;4.01;90.23;100394.81;6247965;23;20008;-72
2022/04/19 03:10:39;;;;;;;3.83;0.80;;;;;;;4.05;90.48;100397.94;6244398;23;20081;-71
2022/04/19 03:13:05;;;;;;;2.40;0.82;;;;;;;4.04;90.38;100398.16;6221489;23;20011;-71
2022/04/19 03:15:34;;;;;;;1.17;0.50;;;;;;;4.00;90.50;100401.31;6221526;23;20011;-71
2022/04/19 03:18:00;;;;;;;3.45;0.88;;;;;;;3.98;90.57;100392.56;6222276;23;20008;-73
2022/04/19 03:20:26;;;;;;;2.83;1.25;;;;;;;4.01;90.39;100396.72;6217518;23;20454;-72
2022/04/19 03:28:45;;;;;;;6.97;1.23;;;;;;;4.12;90.76;100384.34;6247936;23;20501;-74
2022/04/19 03:31:22;;;;;;;2.03;1.10;;;;;;;4.27;90.85;100394.78;6249686;23;20008;-75
2022/04/19 03:33:52;;;;;;;4.28;1.05;;;;;;;4.31;91.02;100383.28;6223008;23;20011;-75
2022/04/19 03:36:19;;;;;;;6.10;1.52;;;;;;;4.51;91.01;100402.00;6223665;23;20000;-75
2022/04/19 03:38:44;;;;;;;4.72;2.10;;;;;;;4.53;90.90;100401.78;6221231;23;20008;-74
2022/04/19 03:41:10;;;;;;;6.20;1.75;;;;;;;4.59;91.46;100398.16;6218307;23;20051;-73
2022/04/19 03:43:37;;;;;;;4.57;1.42;;;;;;;4.60;91.38;100402.53;6222905;23;20023;-73
2022/04/19 03:46:02;;;;;;;2.83;1.48;;;;;;;4.59;91.56;100403.59;6249391;23;20083;-74
2022/04/19 03:48:28;;;;;;;4.22;1.20;;;;;;;4.48;91.39;100401.63;6249299;22;20055;-73
2022/04/19 03:50:54;;;;;;;5.57;1.33;;;;;;;4.35;91.42;100411.56;6195170;23;20008;-73
2022/04/19 03:53:20;;;;;;;8.50;1.38;;;;;;;4.21;91.46;100418.16;6246330;23;20004;-74
2022/04/19 03:55:45;;;;;;;7.63;1.42;;;;;;;4.13;91.88;100418.44;6247256;23;20015;-74
2022/04/19 03:58:11;;;;;;;2.85;1.10;;;;;;;4.04;92.02;100422.50;6193651;23;20004;-75
2022/04/19 04:00:37;;;;;;;5.28;1.17;;;;;;;3.97;92.06;100417.16;6249638;23;20431;-76
2022/04/19 04:03:04;;;;;;;2.53;1.15;;;;;;;3.94;91.82;100414.88;6248620;23;20042;-75
2022/04/19 04:05:30;;;;;;;2.67;1.15;;;;;;;3.95;92.76;100409.25;6248864;23;20008;-75
2022/04/19 04:07:56;;;;;;;4.35;1.25;;;;;;;3.97;92.21;100428.81;6223381;23;20012;-76
2022/04/19 04:10:25;;;;;;;3.42;1.23;;;;;;;3.98;92.76;100407.97;6224440;23;20055;-75
2022/04/19 04:12:50;;;;;;;3.15;1.40;;;;;;;4.02;92.28;100404.59;6227984;23;20000;-76
2022/04/19 04:15:16;;;;;;;5.82;2.05;;;;;;;4.16;92.86;100410.72;6255082;23;20011;-76
2022/04/19 04:17:42;;;;;;;8.88;2.28;;;;;;;4.15;93.06;100402.84;6252206;23;20004;-77
2022/04/19 04:20:10;;;;;;;2.17;1.65;;;;;;;4.16;93.54;100399.06;6199109;23;20004;-76
2022/04/19 04:22:36;;;;;;;3.28;1.35;;;;;;;4.28;92.60;100424.34;6220762;23;20079;-76
2022/04/19 04:25:02;;;;;;;2.72;1.63;;;;;;;4.25;93.16;100427.50;6247206;23;20012;-75
2022/04/19 04:27:28;;;;;;;7.68;1.88;;;;;;;4.28;93.13;100424.34;6250262;23;20450;-74
2022/04/19 04:29:57;;;;;;;4.38;1.75;;;;;;;4.23;93.49;100413.34;6250004;23;20004;-74
2022/04/19 04:32:29;;;;;;;3.20;1.70;;;;;;;4.34;93.21;100422.63;6221041;23;20015;-75
2022/04/19 04:34:54;;;;;;;5.85;2.47;;;;;;;4.34;93.23;100422.63;6249839;23;20558;-74
2022/04/19 04:37:20;;;;;;;6.45;1.70;;;;;;;4.29;93.31;100415.19;6198641;23;20018;-75
2022/04/19 04:39:46;;;;;;;3.35;1.50;;;;;;;4.30;92.93;100424.94;6247194;23;20027;-75
2022/04/19 04:42:11;;;;;;;3.95;1.63;;;;;;;4.24;92.95;100411.50;6248632;23;20019;-75
2022/04/19 04:44:37;;;;;;;4.60;1.58;;;;;;;4.29;92.98;100420.59;6221856;23;20293;-74
2022/04/19 04:49:49;;;;;;;3.45;1.63;;;;;;;4.25;93.34;100418.53;6249501;23;20011;-76
2022/04/19 04:52:15;;;;;;;2.72;1.55;;;;;;;4.26;93.39;100426.44;6221705;23;20012;-75
2022/04/19 04:55:01;;;;;;;3.38;1.40;;;;;;;4.24;93.23;100427.72;6223375;23;20000;-74
2022/04/19 04:57:46;;;;;;;4.53;1.60;;;;;;;4.29;93.67;100436.84;6249998;23;20000;-74
2022/04/19 05:03:22;;;;;;;4.28;1.77;;;;;;;4.27;93.42;100438.91;6164450;23;20020;-75
2022/04/19 05:05:49;;;;;;;4.43;1.70;;;;;;;4.23;93.85;100437.72;6162511;23;20009;-75
2022/04/19 05:08:18;;;;;;;4.75;1.95;;;;;;;4.19;93.52;100429.22;6184047;23;20213;-75
2022/04/19 05:10:44;;;;;;;5.18;2.00;;;;;;;4.16;93.46;100440.50;6164592;23;20009;-75
2022/04/19 05:13:09;;;;;;;9.38;1.98;;;;;;;4.14;94.02;100439.06;6184215;23;20063;-74
2022/04/19 05:15:35;;;;;;;2.95;1.58;;;;;;;4.12;93.81;100441.19;6161882;23;20363;-73
2022/04/19 05:18:00;;;;;;;7.20;2.33;;;;;;;4.13;93.91;100442.81;6186136;23;20028;-74
2022/04/19 05:20:26;;;;;;;4.80;2.03;;;;;;;4.18;93.67;100451.09;6186408;23;20005;-72
2022/04/19 05:22:51;;;;;;;7.43;2.05;;;;;;;4.18;93.85;100448.41;6185053;23;20013;-71
2022/04/19 05:25:17;;;;;;;6.90;2.35;;;;;;;4.16;94.04;100443.22;6157754;23;20013;-69
2022/04/19 05:27:42;;;;;;;7.45;2.33;;;;;;;4.21;93.76;100445.25;6183197;23;20009;-69
2022/04/19 05:30:08;;;;;;;5.63;2.10;;;;;;;4.24;93.80;100439.38;6135977;23;20010;-71
2022/04/19 05:32:35;;;;;;;10.90;2.88;;;;;;;4.19;93.72;100426.50;6160823;23;20009;-69
2022/04/19 05:35:01;;;;;;;9.20;2.38;;;;;;;4.34;93.53;100439.69;6245293;23;20038;-71
2022/04/19 05:37:29;;;;;;;5.20;2.00;;;;;;;4.36;93.42;100432.16;6200955;23;20004;-72
2022/04/19 05:39:55;;;;;;;5.95;2.28;;;;;;;4.49;93.50;100439.31;6174698;23;20019;-72
2022/04/19 05:42:45;;;;;;;4.25;2.17;;;;;;;4.60;92.71;100437.75;6199795;23;20004;-73
2022/04/19 05:45:11;;;;;;;10.05;3.33;;;;;;;4.67;92.57;100427.66;6196654;23;20012;-71
2022/04/19 05:47:37;;;;;;;7.38;2.05;;;;;;;4.82;92.17;100439.97;6219143;23;20030;-71
2022/04/19 05:50:15;;;;;;;5.22;1.98;;;;;;;4.86;91.87;100424.91;6218678;23;20031;-70
2022/04/19 05:52:40;;;;;;;8.80;2.20;;;;;;;4.96;91.27;100432.50;6195309;23;20008;-71
2022/04/19 05:55:07;;;;;;;4.35;1.98;;;;;;;5.00;90.85;100418.28;6198043;23;20099;-72
2022/04/19 05:57:32;;;;;;;8.43;1.67;;;;;;;5.16;90.08;100430.34;6222061;23;20004;-71
2022/04/19 05:59:58;;;;;;;3.85;1.65;;;;;;;5.28;89.63;100424.97;6219905;23;20011;-73
2022/04/19 06:05:16;;;;;;;4.47;1.67;;;;;;;5.64;88.34;100431.31;6230803;23;20334;-73
2022/04/19 06:07:52;;;;;;;5.13;1.70;;;;;;;5.81;87.22;100441.47;6226261;23;19996;-73
2022/04/19 06:10:23;;;;;;;5.22;2.08;;;;;;;5.86;86.19;100428.06;6247345;23;20522;-73
2022/04/19 06:12:48;;;;;;;7.25;2.45;;;;;;;5.92;86.24;100433.34;6199614;23;20008;-73
2022/04/19 06:15:14;;;;;;;3.92;1.80;;;;;;;6.10;86.02;100445.19;6248194;23;20109;-74
2022/04/19 06:17:40;;;;;;;4.95;1.88;;;;;;;6.20;85.35;100440.00;6251144;23;20008;-73
2022/04/19 06:20:07;;;;;;;3.35;1.60;;;;;;;6.25;84.91;100425.72;6223363;23;20004;-73
2022/04/19 06:22:35;;;;;;;4.32;1.50;;;;;;;6.39;84.61;100421.69;6196891;23;20004;-71
2022/04/19 06:25:01;;;;;;;6.40;1.33;;;;;;;6.65;83.20;100446.69;6221281;23;20008;-74
2022/04/19 06:27:27;;;;;;;4.50;1.60;;;;;;;6.84;82.33;100449.25;6196608;23;20102;-74
2022/04/19 06:29:52;;;;;;;3.35;1.65;;;;;;;6.99;82.30;100449.56;6222784;23;20027;-73
2022/04/19 06:32:24;;;;;;;8.63;1.40;;;;;;;7.14;80.47;100455.31;6246776;23;20019;-73
2022/04/19 06:34:50;;;;;;;6.05;1.58;;;;;;;7.29;80.45;100445.78;6247422;23;20011;-73
2022/04/19 06:37:15;;;;;;;5.45;1.80;;;;;;;7.38;79.63;100444.31;6250700;23;20008;-74
2022/04/19 06:39:41;;;;;;;5.72;1.85;;;;;;;7.50;78.25;100442.38;6196337;23;20019;-72
2022/04/19 06:42:07;;;;;;;6.03;1.67;;;;;;;7.54;77.99;100439.16;6245775;23;20028;-73
2022/04/19 06:44:33;;;;;;;3.83;1.50;;;;;;;7.71;77.15;100455.47;6245662;23;20054;-73
2022/04/19 06:46:58;;;;;;;3.65;1.67;;;;;;;7.81;77.30;100464.66;6222232;22;20039;-73
2022/04/19 06:49:24;;;;;;;4.75;1.63;;;;;;;7.95;76.32;100464.34;6197531;23;20016;-73
2022/04/19 06:51:50;;;;;;;4.47;1.40;;;;;;;8.11;77.04;100458.06;6221938;23;20008;-73
2022/04/19 06:54:19;;;;;;;5.82;1.60;;;;;;;8.15;75.32;100448.31;6249483;23;20005;-75
2022/04/19 06:56:45;;;;;;;7.95;1.33;;;;;;;8.27;74.51;100450.13;6221682;23;20031;-74
2022/04/19 06:59:11;;;;;;;7.30;1.17;;;;;;;8.43;75.13;100462.06;6223043;23;20015;-73
2022/04/19 07:01:39;;;;;;;4.10;1.40;;;;;;;8.60;73.96;100471.06;6221986;23;20008;-75
2022/04/19 07:04:05;;;;;;;4.20;1.38;;;;;;;8.63;73.01;100456.94;6224038;23;20039;-73
2022/04/19 07:06:30;;;;;;;4.13;1.27;;;;;;;8.74;72.60;100455.16;6197635;23;20008;-72
2022/04/19 07:08:56;;;;;;;3.20;1.27;;;;;;;8.94;73.12;100464.69;6220960;23;20008;-74
2022/04/19 07:11:21;;;;;;;4.75;1.50;;;;;;;9.16;72.70;100457.28;6253965;23;20015;-75
2022/04/19 07:13:47;;;;;;;2.55;1.35;;;;;;;9.43;71.86;100467.38;6226305;23;20036;-73
2022/04/19 07:28:35;;;;;;;4.50;1.80;;;;;;;9.68;69.51;100468.72;6250938;23;20087;-74
2022/04/19 07:31:03;;;;;;;2.97;1.30;;;;;;;9.76;69.78;100454.59;6223762;23;20430;-74
2022/04/19 07:33:38;;;;;;;2.67;1.55;;;;;;;9.96;69.26;100460.25;6251197;23;20008;-74
2022/04/19 07:36:04;;;;;;;2.35;1.10;;;;;;;9.98;68.64;100462.72;6250137;23;20015;-74
2022/04/19 07:38:30;;;;;;;4.15;1.33;;;;;;;10.12;68.56;100468.56;6224514;23;20004;-73
2022/04/19 07:40:55;;;;;;;5.93;1.48;;;;;;;10.12;68.49;100446.72;6251017;23;20818;-74
2022/04/19 07:43:21;;;;;;;5.85;1.70;;;;;;;10.37;67.89;100459.75;6218347;23;20014;-75
2022/04/19 07:45:46;;;;;;;2.22;1.17;;;;;;;10.51;67.57;100470.22;6225906;23;20004;-74
2022/04/19 07:48:12;;;;;;;3.17;1.08;;;;;;;10.73;67.66;100467.31;6219269;23;20032;-74
2022/04/19 07:50:39;;;;;;;3.15;1.08;;;;;;;10.93;65.88;100456.47;6226377;23;20004;-74
2022/04/19 07:53:07;;;;;;;4.35;1.35;;;;;;;11.32;64.81;100452.50;6199785;23;20007;-73
2022/04/19 07:55:33;;;;;;;3.25;1.20;;;;;;;11.75;64.11;100476.91;6250797;23;20007;-73
2022/04/19 07:58:02;;;;;;;3.25;1.15;;;;;;;11.98;62.52;100470.94;6198456;23;20008;-75
2022/04/19 08:00:28;;;;;;;1.48;0.73;;;;;;;12.33;61.48;100477.47;6252015;23;20625;-73
2022/04/19 08:02:57;;;;;;;2.15;0.80;;;;;;;12.38;60.89;100474.75;6244777;23;20008;-71
2022/04/19 08:05:25;;;;;;;4.57;1.60;;;;;;;12.55;59.88;100474.41;6243845;23;20090;-73
2022/04/19 08:07:51;;;;;;;6.50;1.80;;;;;;;12.61;59.95;100467.00;6244890;23;20402;-72
2022/04/19 08:10:18;;;;;;;3.75;1.17;;;;;;;12.78;59.66;100466.69;6243287;23;20020;-73
2022/04/19 08:12:44;;;;;;;2.92;1.15;;;;;;;12.87;59.51;100469.69;6244444;23;20761;-73
2022/04/19 08:15:10;;;;;;;4.03;1.05;;;;;;;13.12;59.10;100467.94;6242476;23;20311;-73
2022/04/19 08:17:37;;;;;;;3.72;1.00;;;;;;;13.31;58.09;100468.91;6218504;23;20012;-72
2022/04/19 08:20:06;;;;;;;3.20;1.38;;;;;;;13.38;57.63;100466.69;6216908;23;20063;-73
2022/04/19 08:22:32;;;;;;;1.63;1.10;;;;;;;13.66;57.08;100480.81;6218498;23;20000;-71
2022/04/19 08:28:38;;;;;;;2.25;1.13;;;;;;;14.52;56.00;100469.34;6219786;22;20035;-72
2022/04/19 08:31:04;;;;;;;4.30;1.20;;;;;;;15.25;54.30;100474.84;6224817;22;20007;-72
2022/04/19 08:33:29;;;;;;;2.05;0.82;;;;;;;16.05;51.91;100449.09;6249793;22;20047;-73
2022/04/19 08:35:58;;;;;;;3.03;1.17;;;;;;;16.96;49.64;100454.34;6228486;22;20008;-73
2022/04/19 08:38:23;;;;;;;2.83;1.13;;;;;;;17.94;46.69;100464.81;6279446;22;20014;-72
2022/04/19 08:40:49;;;;;;;3.75;1.38;;;;;;;19.43;43.39;100475.72;6227324;22;20004;-74
2022/04/19 08:43:31;;;;;;;4.78;1.25;;;;;;;20.37;40.41;100473.22;6252863;22;20019;-73
2022/04/19 08:45:57;;;;;;;4.85;0.95;;;;;;;21.07;39.03;100486.84;6251483;22;20026;-73
2022/04/19 08:48:25;;;;;;;4.72;0.90;;;;;;;22.14;36.83;100480.94;6277034;22;20000;-71
2022/04/19 08:50:54;;;;;;;4.78;1.23;;;;;;;22.75;34.65;100475.84;6277812;22;20038;-73
2022/04/19 09:06:00;;;;;;;4.20;1.45;;;;;;;23.90;32.06;100443.13;6141090;23;20013;-74
2022/04/19 09:08:25;;;;;;;3.88;1.20;;;;;;;22.93;33.47;100451.38;6267319;22;20007;-72
2022/04/19 09:11:04;;;;;;;1.05;0.70;;;;;;;22.21;35.11;100482.34;6278354;22;20015;-71
2022/04/19 09:13:29;;;;;;;1.15;0.65;;;;;;;22.92;35.30;100488.78;6275842;22;20027;-72
2022/04/19 09:15:55;;;;;;;2.25;0.88;;;;;;;24.01;32.55;100483.34;6252633;22;20010;-73
2022/04/19 09:18:24;;;;;;;3.17;1.10;;;;;;;24.97;31.05;100488.22;6250011;22;20007;-72
2022/04/19 09:20:51;;;;;;;2.13;1.00;;;;;;;26.95;29.03;100478.22;6250030;22;20006;-73
2022/04/19 09:23:17;;;;;;;5.15;1.45;;;;;;;28.47;26.59;100486.59;6249495;22;20027;-72
2022/04/19 09:25:44;;;;;;;2.38;1.05;;;;;;;29.97;24.99;100494.50;6278247;22;20031;-73
2022/04/19 09:28:23;;;;;;;4.55;1.30;;;;;;;29.40;23.60;100493.00;6249799;22;20034;-73
2022/04/19 09:30:56;;;;;;;5.38;1.05;;;;;;;27.12;26.20;100493.72;6248460;22;20036;-73
2022/04/19 09:33:23;;;;;;;4.03;1.10;;;;;;;26.16;28.72;100494.47;6278616;22;20008;-72
2022/04/19 09:35:53;;;;;;;2.10;0.98;;;;;;;27.52;28.33;100489.50;6278328;22;20004;-73
2022/04/19 09:38:35;;;;;;;3.58;1.48;;;;;;;28.51;25.77;100479.81;6281308;22;20003;-74
2022/04/19 09:41:02;;;;;;;3.20;1.40;;;;;;;26.43;27.07;100488.94;6289092;22;20059;-74
2022/04/19 09:43:28;;;;;;;3.78;1.90;;;;;;;24.57;29.54;100484.44;6265586;22;20192;-72
2022/04/19 09:45:58;;;;;;;5.93;1.50;;;;;;;23.35;31.16;100479.00;6285726;22;20007;-73
2022/04/19 09:48:29;;;;;;;2.88;1.50;;;;;;;22.16;33.14;100485.38;6279248;22;20003;-73
2022/04/19 09:50:58;;;;;;;5.75;1.92;;;;;;;20.99;35.19;100479.34;6279685;22;20088;-74
2022/04/19 09:53:26;;;;;;;7.40;1.80;;;;;;;23.72;32.65;100481.69;6277718;22;20007;-73
2022/04/19 09:55:54;;;;;;;5.43;1.80;;;;;;;26.42;27.64;100488.13;6282222;22;20011;-73
2022/04/19 09:58:20;;;;;;;7.80;1.92;;;;;;;26.26;27.19;100476.22;6253150;22;19999;-74
2022/04/19 10:00:47;;;;;;;4.57;1.25;;;;;;;24.38;29.07;100479.53;6280709;22;19999;-74
2022/04/19 10:08:43;;;;;;;;;;;;;;;28.74;26.71;100481.66;6257268;22;20335;-73
2022/04/19 10:11:12;;;;;;;7.82;2.05;;;;;;;30.74;22.66;100474.50;6253290;22;19911;-74
2022/04/19 10:13:39;;;;;;;3.15;1.17;;;;;;;31.76;22.61;100487.22;6249627;22;20007;-74
2022/04/19 10:16:16;;;;;;;3.20;1.48;;;;;;;33.43;20.36;100481.94;6254751;22;20003;-73
2022/04/19 10:18:45;;;;;;;4.13;1.20;;;;;;;34.86;19.22;100495.38;6251674;22;20013;-73
2022/04/19 10:21:38;;;;;;;3.72;1.30;;;;;;;36.23;16.44;100481.28;6277020;22;20012;-73
2022/04/19 10:35:28;;;;;;;;;;;;;;;;;;;;;
2022/04/19 10:38:19;;;;;;;1.63;0.85;;;;;;;40.61;13.75;100476.22;6085351;23;20058;-73
2022/04/19 10:40:55;;;;;;;3.03;1.02;;;;;;;41.35;12.82;100469.75;6159733;23;20012;-75
2022/04/19 10:43:23;;;;;;;3.53;0.95;;;;;;;40.32;13.46;100459.41;6268944;22;20008;-74
2022/04/19 10:45:54;;;;;;;1.98;1.10;;;;;;;40.30;13.04;100461.91;6230118;22;20011;-75
2022/04/19 10:48:20;;;;;;;2.33;0.90;;;;;;;41.14;12.61;100466.56;6254268;22;20398;-73
2022/04/19 10:51:22;;;;;;;1.88;1.25;;;;;;;42.01;12.05;100471.19;6281910;22;20004;-75
2022/04/19 10:53:55;;;;;;;3.00;1.20;;;;;;;40.61;12.57;100458.19;6261768;22;20011;-75
2022/04/19 10:56:24;;;;;;;2.60;1.00;;;;;;;40.51;13.03;100479.50;6279803;22;20004;-75
2022/04/19 10:58:49;;;;;;;4.28;1.30;;;;;;;40.09;13.07;100475.84;6251471;22;20011;-75
2022/04/19 11:01:29;;;;;;;3.00;1.10;;;;;;;43.06;11.23;100475.41;6278693;22;20069;-77
2022/04/19 11:03:56;;;;;;;5.63;0.95;;;;;;;42.02;11.18;100475.66;6253635;22;20007;-74
2022/04/19 11:06:37;;;;;;;2.75;0.85;;;;;;;38.32;13.05;100457.66;6255458;22;20015;-74
2022/04/19 11:09:20;;;;;;;1.52;0.90;;;;;;;35.80;15.41;100448.91;6282197;22;20548;-74
2022/04/19 11:12:08;;;;;;;2.22;0.88;;;;;;;35.33;15.55;100439.75;6256962;22;20094;-74
2022/04/19 11:14:40;;;;;;;2.78;1.25;;;;;;;34.37;17.20;100447.47;6282671;22;20057;-74
2022/04/19 11:17:40;;;;;;;1.88;1.00;;;;;;;36.45;15.38;100453.13;6283362;22;20007;-75
2022/04/19 11:23:50;;;;;;;3.65;1.40;;;;;;;31.78;17.65;100436.72;6280534;22;20449;-75
2022/04/19 11:26:59;;;;;;;3.15;1.25;;;;;;;29.47;19.85;100437.91;6253114;22;20402;-76
2022/04/19 11:29:25;;;;;;;2.65;1.20;;;;;;;29.72;20.11;100385.28;6252971;22;20011;-75
2022/04/19 11:32:44;;;;;;;;;;;;;;;;;;;;;
2022/04/19 11:35:17;;;;;;;5.30;1.08;;;;;;;36.17;15.20;100449.69;6280703;22;20030;-75
2022/04/19 11:37:44;;;;;;;2.13;0.85;;;;;;;37.46;14.74;100438.28;6278749;22;20061;-74
2022/04/19 11:48:39;;;;;;;2.30;0.80;;;;;;;42.08;11.22;100447.88;6278877;22;20251;-74
2022/04/19 11:51:09;;;;;;;2.75;1.10;;;;;;;40.36;11.70;100451.44;6279823;22;20708;-74
2022/04/19 11:53:36;;;;;;;2.38;1.17;;;;;;;36.57;14.14;100439.44;6246057;22;20060;-74
2022/04/19 11:56:03;;;;;;;6.85;1.27;;;;;;;33.15;16.23;100438.53;6246253;22;20007;-73
2022/04/19 11:58:28;;;;;;;1.27;0.77;;;;;;;30.34;19.09;100428.50;6274231;22;20003;-73
2022/04/19 12:01:04;;;;;;;2.80;1.05;;;;;;;28.09;20.73;100418.38;6277161;22;20064;-74
2022/04/19 12:03:32;;;;;;;5.85;1.30;;;;;;;26.42;23.23;100428.47;6275320;22;20030;-75
2022/04/19 12:06:09;;;;;;;7.07;1.60;;;;;;;24.88;25.04;100424.09;6248859;22;20015;-73
2022/04/19 12:08:37;;;;;;;4.05;1.30;;;;;;;23.92;27.02;100414.84;6277810;22;20003;-72
2022/04/19 12:11:06;;;;;;;6.75;1.40;;;;;;;23.04;28.03;100419.03;6276170;22;20002;-73
2022/04/19 12:13:32;;;;;;;2.40;1.20;;;;;;;22.57;28.69;100419.53;6250477;22;20069;-73
2022/04/19 12:16:00;;;;;;;3.50;1.38;;;;;;;22.27;29.41;100409.38;6276014;22;20380;-73
2022/04/19 12:18:35;;;;;;;2.42;1.25;;;;;;;22.04;29.70;100414.56;6245865;22;20011;-74
2022/04/19 12:21:01;;;;;;;2.38;1.30;;;;;;;22.11;29.74;100414.81;6272728;22;20004;-72
2022/04/19 12:23:27;;;;;;;3.33;1.42;;;;;;;22.63;28.86;100416.19;6247639;22;20015;-73
2022/04/19 12:26:01;;;;;;;3.50;1.15;;;;;;;24.82;27.77;100419.97;6273311;22;20008;-73
2022/04/19 12:28:53;;;;;;;4.07;1.40;;;;;;;26.73;24.97;100418.97;6236240;22;20153;-75
2022/04/19 12:31:39;;;;;;;2.67;1.40;;;;;;;26.25;24.62;100426.97;6236441;22;20008;-75
2022/04/19 12:34:06;;;;;;;3.78;1.60;;;;;;;24.75;26.48;100426.22;6268542;22;20475;-75
2022/04/19 12:36:48;;;;;;;3.42;1.27;;;;;;;23.43;27.84;100415.84;6268762;22;20086;-75
2022/04/19 12:39:15;;;;;;;2.47;1.23;;;;;;;22.86;29.25;100412.91;6247382;22;20027;-74
2022/04/19 12:46:17;;;;;;;;;;;;;;;;;;;;;
2022/04/19 12:52:20;;;;;;;3.58;1.50;;;;;;;22.22;31.08;100373.38;6083361;22;20020;-75
2022/04/19 12:55:19;;;;;;;11.45;1.58;;;;;;;21.87;32.99;100378.56;6278258;22;20038;-75
2022/04/19 12:57:45;;;;;;;4.40;1.45;;;;;;;21.59;35.31;100393.88;6248863;22;20086;-75
2022/04/19 13:00:11;;;;;;;3.15;1.35;;;;;;;21.54;35.29;100415.56;6277843;22;20422;-74
2022/04/19 13:02:38;;;;;;;3.80;1.38;;;;;;;21.46;35.69;100414.41;6273373;22;20380;-75
2022/04/19 13:05:04;;;;;;;4.78;1.77;;;;;;;21.47;35.95;100410.50;6276442;22;20007;-75
2022/04/19 13:13:04;;;;;;;6.00;1.95;;;;;;;21.50;34.88;100400.66;6274501;22;20030;-76
2022/04/19 13:15:34;;;;;;;6.10;1.85;;;;;;;21.52;34.53;100407.53;6246341;22;20077;-75
2022/04/19 13:18:00;;;;;;;3.42;1.48;;;;;;;21.50;34.46;100404.25;6242950;22;20007;-75
2022/04/19 13:20:26;;;;;;;4.68;1.67;;;;;;;21.49;34.14;100407.38;6272413;22;20008;-76